createdAt,value
2024-03-24T00:00:34.077Z,10.46
2024-03-24T00:01:34.217Z,10.46
2024-03-24T00:02:34.408Z,10.40
2024-03-24T00:03:34.585Z,10.33
2024-03-24T00:04:34.790Z,10.36
2024-03-24T00:05:34.965Z,10.35
2024-03-24T00:06:35.115Z,10.45
2024-03-24T00:07:35.272Z,10.39
2024-03-24T00:08:35.427Z,10.33
2024-03-24T00:09:35.598Z,10.31
2024-03-24T00:10:35.792Z,10.32
2024-03-24T00:11:35.971Z,10.12
2024-03-24T00:12:36.193Z,10.15
2024-03-24T00:13:36.349Z,10.09
2024-03-24T00:14:36.479Z,9.96
2024-03-24T00:15:36.627Z,9.92
2024-03-24T00:16:36.805Z,9.82
2024-03-24T00:17:37.041Z,9.78
2024-03-24T00:18:37.143Z,9.85
2024-03-24T00:19:37.299Z,9.80
2024-03-24T00:20:37.477Z,9.74
2024-03-24T00:21:37.634Z,9.66
2024-03-24T00:22:37.796Z,9.71
2024-03-24T00:23:37.932Z,9.80
2024-03-24T00:24:38.118Z,9.84
2024-03-24T00:25:38.325Z,9.73
2024-03-24T00:26:38.521Z,9.85
2024-03-24T00:27:38.770Z,9.85
2024-03-24T00:28:38.913Z,9.75
2024-03-24T00:29:39.099Z,9.61
2024-03-24T00:30:39.285Z,9.61
2024-03-24T00:31:39.444Z,9.58
2024-03-24T00:32:39.631Z,9.44
2024-03-24T00:33:39.821Z,9.40
2024-03-24T00:34:39.999Z,9.43
2024-03-24T00:35:40.186Z,9.47
2024-03-24T00:36:40.338Z,9.53
2024-03-24T00:37:40.558Z,9.55
2024-03-24T00:38:40.715Z,9.77
2024-03-24T00:39:43.361Z,9.84
2024-03-24T00:40:41.036Z,9.74
2024-03-24T00:41:41.209Z,9.61
2024-03-24T00:42:41.357Z,9.58
2024-03-24T00:43:41.471Z,9.51
2024-03-24T00:44:42.687Z,9.54
2024-03-24T00:45:41.751Z,9.59
2024-03-24T00:46:41.899Z,9.53
2024-03-24T00:47:42.058Z,9.59
2024-03-24T00:48:42.169Z,9.82
2024-03-24T00:49:42.320Z,9.84
2024-03-24T00:50:42.468Z,9.91
2024-03-24T00:51:42.598Z,9.85
2024-03-24T00:52:42.761Z,9.81
2024-03-24T00:53:42.877Z,9.74
2024-03-24T00:54:43.027Z,9.73
2024-03-24T00:55:43.187Z,9.70
2024-03-24T00:56:43.354Z,9.59
2024-03-24T00:57:43.457Z,9.65
2024-03-24T00:58:43.604Z,9.64
2024-03-24T00:59:43.767Z,9.74
2024-03-24T01:00:43.889Z,9.75
2024-03-24T01:01:44.041Z,9.61
2024-03-24T01:02:44.172Z,9.62
2024-03-24T01:03:44.315Z,9.59
2024-03-24T01:04:44.468Z,9.68
2024-03-24T01:05:44.633Z,9.73
2024-03-24T01:06:44.776Z,9.73
2024-03-24T01:07:44.963Z,9.78
2024-03-24T01:08:45.097Z,9.71
2024-03-24T01:09:45.314Z,9.64
2024-03-24T01:10:45.491Z,9.64
2024-03-24T01:11:45.707Z,9.45
2024-03-24T01:12:45.917Z,9.54
2024-03-24T01:13:46.126Z,9.59
2024-03-24T01:14:46.346Z,9.54
2024-03-24T01:15:46.557Z,9.47
2024-03-24T01:16:46.709Z,9.44
2024-03-24T01:17:46.933Z,9.57
2024-03-24T01:18:47.091Z,9.48
2024-03-24T01:19:47.246Z,9.44
2024-03-24T01:20:47.422Z,9.38
2024-03-24T01:21:47.586Z,9.23
2024-03-24T01:22:47.798Z,9.20
2024-03-24T01:23:47.982Z,9.24
2024-03-24T01:24:48.148Z,9.17
2024-03-24T01:25:48.359Z,9.16
2024-03-24T01:26:48.573Z,9.23
2024-03-24T01:27:48.766Z,9.09
2024-03-24T01:28:48.961Z,8.99
2024-03-24T01:29:49.174Z,8.82
2024-03-24T01:30:49.423Z,8.80
2024-03-24T01:31:49.640Z,8.84
2024-03-24T01:32:49.845Z,8.87
2024-03-24T01:33:50.065Z,8.82
2024-03-24T01:34:50.290Z,8.80
2024-03-24T01:35:50.427Z,8.82
2024-03-24T01:36:50.635Z,8.78
2024-03-24T01:37:50.849Z,8.76
2024-03-24T01:38:51.014Z,8.87
2024-03-24T01:39:51.240Z,8.90
2024-03-24T01:40:51.453Z,8.82
2024-03-24T01:41:51.592Z,8.75
2024-03-24T01:42:51.808Z,8.90
2024-03-24T01:43:52.007Z,9.02
2024-03-24T01:44:52.235Z,9.04
2024-03-24T01:45:52.443Z,9.09
2024-03-24T01:46:52.666Z,9.04
2024-03-24T01:47:52.873Z,9.16
2024-03-24T01:48:53.056Z,9.31
2024-03-24T01:49:53.285Z,9.14
2024-03-24T01:50:53.469Z,9.03
2024-03-24T01:51:53.665Z,9.07
2024-03-24T01:52:53.925Z,9.07
2024-03-24T01:53:54.198Z,8.99
2024-03-24T01:54:54.370Z,9.07
2024-03-24T01:55:54.558Z,9.10
2024-03-24T01:56:54.730Z,9.31
2024-03-24T01:57:54.999Z,9.16
2024-03-24T01:58:55.099Z,9.12
2024-03-24T01:59:55.258Z,9.23
2024-03-24T02:00:55.476Z,9.38
2024-03-24T02:01:55.628Z,9.19
2024-03-24T02:02:55.810Z,9.21
2024-03-24T02:03:56.002Z,9.16
2024-03-24T02:04:56.179Z,9.21
2024-03-24T02:05:56.402Z,9.24
2024-03-24T02:06:56.669Z,9.23
2024-03-24T02:07:56.826Z,9.17
2024-03-24T02:08:57.023Z,9.12
2024-03-24T02:09:57.244Z,9.09
2024-03-24T02:10:57.421Z,9.06
2024-03-24T02:11:57.607Z,9.02
2024-03-24T02:12:57.809Z,9.04
2024-03-24T02:13:58.030Z,9.20
2024-03-24T02:14:58.273Z,9.26
2024-03-24T02:15:58.485Z,9.33
2024-03-24T02:16:58.699Z,9.23
2024-03-24T02:18:00.662Z,9.33
2024-03-24T02:18:59.087Z,9.24
2024-03-24T02:19:59.238Z,9.21
2024-03-24T02:20:59.441Z,9.21
2024-03-24T02:21:59.673Z,9.23
2024-03-24T02:22:59.941Z,9.14
2024-03-24T02:23:59.957Z,9.04
2024-03-24T02:25:00.214Z,9.04
2024-03-24T02:26:00.315Z,9.03
2024-03-24T02:27:00.529Z,9.12
2024-03-24T02:28:00.748Z,9.04
2024-03-24T02:29:00.896Z,8.98
2024-03-24T02:30:01.149Z,8.93
2024-03-24T02:31:01.318Z,8.87
2024-03-24T02:32:01.478Z,8.98
2024-03-24T02:33:01.723Z,8.96
2024-03-24T02:34:01.881Z,9.06
2024-03-24T02:35:02.060Z,8.99
2024-03-24T02:36:02.315Z,8.98
2024-03-24T02:37:02.424Z,9.03
2024-03-24T02:38:02.612Z,9.14
2024-03-24T02:39:02.761Z,9.12
2024-03-24T02:40:02.950Z,9.12
2024-03-24T02:41:03.132Z,9.03
2024-03-24T02:42:03.340Z,9.04
2024-03-24T02:43:03.496Z,9.02
2024-03-24T02:44:03.688Z,8.99
2024-03-24T02:45:03.871Z,9.04
2024-03-24T02:46:04.080Z,8.98
2024-03-24T02:47:04.310Z,8.99
2024-03-24T02:48:04.443Z,9.10
2024-03-24T02:49:04.619Z,9.10
2024-03-24T02:50:04.781Z,9.07
2024-03-24T02:51:05.011Z,9.20
2024-03-24T02:52:05.177Z,9.16
2024-03-24T02:53:05.331Z,9.12
2024-03-24T02:54:05.487Z,9.20
2024-03-24T02:55:05.673Z,9.27
2024-03-24T02:56:05.839Z,9.20
2024-03-24T02:57:06.023Z,9.27
2024-03-24T02:58:07.300Z,9.29
2024-03-24T02:59:06.368Z,9.51
2024-03-24T03:00:07.461Z,9.33
2024-03-24T03:01:06.746Z,9.33
2024-03-24T03:02:06.909Z,9.43
2024-03-24T03:03:07.119Z,9.38
2024-03-24T03:04:07.295Z,9.35
2024-03-24T03:05:07.504Z,9.37
2024-03-24T03:06:07.714Z,9.33
2024-03-24T03:07:08.019Z,9.33
2024-03-24T03:08:08.165Z,9.38
2024-03-24T03:09:08.340Z,9.41
2024-03-24T03:10:10.328Z,9.51
2024-03-24T03:11:08.698Z,9.59
2024-03-24T03:12:08.871Z,9.70
2024-03-24T03:13:09.044Z,9.86
2024-03-24T03:14:09.199Z,9.81
2024-03-24T03:15:09.341Z,9.91
2024-03-24T03:16:09.529Z,9.92
2024-03-24T03:17:09.651Z,9.89
2024-03-24T03:18:09.827Z,9.91
2024-03-24T03:19:10.004Z,9.73
2024-03-24T03:20:10.139Z,9.77
2024-03-24T03:21:10.322Z,9.70
2024-03-24T03:22:10.571Z,9.58
2024-03-24T03:23:10.737Z,9.53
2024-03-24T03:24:10.938Z,9.43
2024-03-24T03:25:11.136Z,9.45
2024-03-24T03:26:11.335Z,9.50
2024-03-24T03:27:11.500Z,9.54
2024-03-24T03:28:11.674Z,9.57
2024-03-24T03:29:11.854Z,9.59
2024-03-24T03:30:12.000Z,9.37
2024-03-24T03:31:12.193Z,9.20
2024-03-24T03:32:12.341Z,9.23
2024-03-24T03:33:12.588Z,9.26
2024-03-24T03:34:12.767Z,9.16
2024-03-24T03:35:12.928Z,9.02
2024-03-24T03:36:13.126Z,9.00
2024-03-24T03:37:13.385Z,8.89
2024-03-24T03:38:13.564Z,8.83
2024-03-24T03:39:13.774Z,8.75
2024-03-24T03:40:14.061Z,8.84
2024-03-24T03:41:14.250Z,8.79
2024-03-24T03:42:14.461Z,8.89
2024-03-24T03:43:14.639Z,8.76
2024-03-24T03:44:14.830Z,8.89
2024-03-24T03:45:15.039Z,8.98
2024-03-24T03:46:15.364Z,9.13
2024-03-24T03:47:15.441Z,8.99
2024-03-24T03:48:15.681Z,9.02
2024-03-24T03:49:15.891Z,8.93
2024-03-24T03:50:16.051Z,8.98
2024-03-24T03:51:16.270Z,9.10
2024-03-24T03:52:16.488Z,9.14
2024-03-24T03:53:16.689Z,9.02
2024-03-24T03:54:16.891Z,9.02
2024-03-24T03:55:17.103Z,9.04
2024-03-24T03:56:17.259Z,9.17
2024-03-24T03:57:17.458Z,9.02
2024-03-24T03:58:17.678Z,9.06
2024-03-24T03:59:17.871Z,9.14
2024-03-24T04:00:18.053Z,9.13
2024-03-24T04:01:18.258Z,9.26
2024-03-24T04:02:18.472Z,9.21
2024-03-24T04:03:18.724Z,9.09
2024-03-24T04:04:18.867Z,9.14
2024-03-24T04:05:19.106Z,9.17
2024-03-24T04:06:19.287Z,9.17
2024-03-24T04:07:19.511Z,9.21
2024-03-24T04:08:19.656Z,9.21
2024-03-24T04:09:19.853Z,9.35
2024-03-24T04:10:20.031Z,9.30
2024-03-24T04:11:20.216Z,9.16
2024-03-24T04:12:20.410Z,9.12
2024-03-24T04:13:20.593Z,9.17
2024-03-24T04:14:20.827Z,9.14
2024-03-24T04:15:21.033Z,9.19
2024-03-24T04:16:21.253Z,9.26
2024-03-24T04:17:21.476Z,9.23
2024-03-24T04:18:21.660Z,9.47
2024-03-24T04:19:21.858Z,9.53
2024-03-24T04:20:22.032Z,9.47
2024-03-24T04:21:22.203Z,9.43
2024-03-24T04:22:22.428Z,9.37
2024-03-24T04:23:22.605Z,9.34
2024-03-24T04:24:22.801Z,9.14
2024-03-24T04:25:23.018Z,9.12
2024-03-24T04:26:23.195Z,9.03
2024-03-24T04:27:23.404Z,9.04
2024-03-24T04:28:23.618Z,9.12
2024-03-24T04:29:23.832Z,9.17
2024-03-24T04:30:24.016Z,9.10
2024-03-24T04:31:24.258Z,9.04
2024-03-24T04:32:24.454Z,9.04
2024-03-24T04:33:24.648Z,8.84
2024-03-24T04:34:24.788Z,8.98
2024-03-24T04:35:24.984Z,8.94
2024-03-24T04:36:25.202Z,8.87
2024-03-24T04:37:25.428Z,8.78
2024-03-24T04:38:25.712Z,8.78
2024-03-24T04:39:25.836Z,8.62
2024-03-24T04:40:26.023Z,8.63
2024-03-24T04:41:26.202Z,8.62
2024-03-24T04:42:26.376Z,8.69
2024-03-24T04:43:26.530Z,8.76
2024-03-24T04:44:26.694Z,8.96
2024-03-24T04:45:26.886Z,8.84
2024-03-24T04:46:27.062Z,8.82
2024-03-24T04:47:27.315Z,8.73
2024-03-24T04:48:27.514Z,8.89
2024-03-24T04:49:27.586Z,9.03
2024-03-24T04:50:27.762Z,9.09
2024-03-24T04:51:27.947Z,9.09
2024-03-24T04:52:28.195Z,8.96
2024-03-24T04:53:28.366Z,9.04
2024-03-24T04:54:28.598Z,8.84
2024-03-24T04:55:28.863Z,8.86
2024-03-24T04:56:29.080Z,8.87
2024-03-24T04:57:29.323Z,9.00
2024-03-24T04:58:29.560Z,9.06
2024-03-24T04:59:29.761Z,9.06
2024-03-24T05:00:30.106Z,9.02
2024-03-24T05:01:30.172Z,9.13
2024-03-24T05:02:30.303Z,9.30
2024-03-24T05:03:30.504Z,9.34
2024-03-24T05:04:30.701Z,9.30
2024-03-24T05:05:30.882Z,9.30
2024-03-24T05:06:31.094Z,9.23
2024-03-24T05:07:31.307Z,9.38
2024-03-24T05:08:31.535Z,9.31
2024-03-24T05:09:31.720Z,9.38
2024-03-24T05:10:31.930Z,9.27
2024-03-24T05:11:32.188Z,9.23
2024-03-24T05:12:32.417Z,9.23
2024-03-24T05:13:32.622Z,9.14
2024-03-24T05:14:32.846Z,9.16
2024-03-24T05:15:33.056Z,9.16
2024-03-24T05:16:33.242Z,9.20
2024-03-24T05:17:40.795Z,9.26
2024-03-24T05:18:40.804Z,9.29
2024-03-24T05:19:40.807Z,9.14
2024-03-24T05:20:40.855Z,9.12
2024-03-24T05:21:40.854Z,9.06
2024-03-24T05:22:40.876Z,9.06
2024-03-24T05:23:40.935Z,9.07
2024-03-24T05:24:40.940Z,8.89
2024-03-24T05:25:40.944Z,8.76
2024-03-24T05:26:40.964Z,8.66
2024-03-24T05:27:40.982Z,8.76
2024-03-24T05:28:50.214Z,8.78
2024-03-24T05:29:42.052Z,8.83
2024-03-24T05:30:41.038Z,8.82
2024-03-24T05:31:41.089Z,8.83
2024-03-24T05:32:41.103Z,8.90
2024-03-24T05:33:41.118Z,8.84
2024-03-24T05:34:41.117Z,8.96
2024-03-24T05:35:41.139Z,8.89
2024-03-24T05:36:41.141Z,9.02
2024-03-24T05:37:41.197Z,8.98
2024-03-24T05:38:41.214Z,8.90
2024-03-24T05:39:41.226Z,8.76
2024-03-24T05:40:41.266Z,8.75
2024-03-24T05:41:41.283Z,8.79
2024-03-24T05:42:41.309Z,8.80
2024-03-24T05:43:41.337Z,8.75
2024-03-24T05:44:41.409Z,8.75
2024-03-24T05:45:41.506Z,8.68
2024-03-24T05:46:41.545Z,8.79
2024-03-24T05:47:41.620Z,8.76
2024-03-24T05:48:41.685Z,8.76
2024-03-24T05:49:41.738Z,8.70
2024-03-24T05:50:41.780Z,8.83
2024-03-24T05:51:41.856Z,8.96
2024-03-24T05:52:41.919Z,8.96
2024-03-24T05:53:41.987Z,9.00
2024-03-24T05:54:42.027Z,8.92
2024-03-24T05:55:42.074Z,9.03
2024-03-24T05:56:42.101Z,9.00
2024-03-24T05:57:42.140Z,9.07
2024-03-24T05:58:42.198Z,9.26
2024-03-24T05:59:42.229Z,9.29
2024-03-24T06:00:42.333Z,9.30
2024-03-24T06:01:44.701Z,9.41
2024-03-24T06:02:42.416Z,9.30
2024-03-24T06:03:42.447Z,9.26
2024-03-24T06:04:42.458Z,9.31
2024-03-24T06:05:42.457Z,9.40
2024-03-24T06:06:42.529Z,9.40
2024-03-24T06:07:42.505Z,9.54
2024-03-24T06:08:42.523Z,9.61
2024-03-24T06:09:42.548Z,9.59
2024-03-24T06:10:42.559Z,9.70
2024-03-24T06:11:42.561Z,9.74
2024-03-24T06:12:42.563Z,9.77
2024-03-24T06:13:42.572Z,9.66
2024-03-24T06:14:42.598Z,9.73
2024-03-24T06:15:42.616Z,9.50
2024-03-24T06:16:42.615Z,9.31
2024-03-24T06:17:42.648Z,9.30
2024-03-24T06:18:42.655Z,9.33
2024-03-24T06:19:42.666Z,9.37
2024-03-24T06:20:42.698Z,9.40
2024-03-24T06:21:42.720Z,9.37
2024-03-24T06:22:42.735Z,9.40
2024-03-24T06:23:42.733Z,9.53
2024-03-24T06:24:42.745Z,9.50
2024-03-24T06:25:42.755Z,9.50
2024-03-24T06:26:42.785Z,9.61
2024-03-24T06:27:42.761Z,9.61
2024-03-24T06:28:42.787Z,9.58
2024-03-24T06:29:42.795Z,9.61
2024-03-24T06:30:42.802Z,9.64
2024-03-24T06:31:44.637Z,9.74
2024-03-24T06:32:42.813Z,9.75
2024-03-24T06:33:42.814Z,9.75
2024-03-24T06:34:42.814Z,9.82
2024-03-24T06:35:42.836Z,9.70
2024-03-24T06:36:42.835Z,9.77
2024-03-24T06:37:42.848Z,9.78
2024-03-24T06:38:42.858Z,9.85
2024-03-24T06:39:42.864Z,9.95
2024-03-24T06:40:42.855Z,9.92
2024-03-24T06:41:42.873Z,9.95
2024-03-24T06:42:42.877Z,9.91
2024-03-24T06:43:42.887Z,9.91
2024-03-24T06:44:42.890Z,9.94
2024-03-24T06:45:42.891Z,9.75
2024-03-24T06:46:42.916Z,9.82
2024-03-24T06:47:42.932Z,9.88
2024-03-24T06:48:42.960Z,10.02
2024-03-24T06:49:42.959Z,10.13
2024-03-24T06:50:42.970Z,10.06
2024-03-24T06:51:42.994Z,9.98
2024-03-24T06:52:43.004Z,10.13
2024-03-24T06:53:43.005Z,9.94
2024-03-24T06:54:43.013Z,9.84
2024-03-24T06:55:43.009Z,9.84
2024-03-24T06:56:43.032Z,9.78
2024-03-24T06:57:43.029Z,9.85
2024-03-24T06:58:43.074Z,9.68
2024-03-24T06:59:43.091Z,9.55
2024-03-24T07:00:43.054Z,9.43
2024-03-24T07:01:43.109Z,9.34
2024-03-24T07:02:43.125Z,9.38
2024-03-24T07:03:43.157Z,9.48
2024-03-24T07:04:43.167Z,9.59
2024-03-24T07:05:43.163Z,9.58
2024-03-24T07:06:43.209Z,9.61
2024-03-24T07:07:43.189Z,9.74
2024-03-24T07:08:43.226Z,9.81
2024-03-24T07:09:43.220Z,9.71
2024-03-24T07:10:43.250Z,9.58
2024-03-24T07:11:43.214Z,9.43
2024-03-24T07:12:43.279Z,9.31
2024-03-24T07:13:43.287Z,9.29
2024-03-24T07:14:43.297Z,9.38
2024-03-24T07:15:43.304Z,9.34
2024-03-24T07:16:43.305Z,9.40
2024-03-24T07:17:43.366Z,9.13
2024-03-24T07:18:43.367Z,9.31
2024-03-24T07:19:43.398Z,9.34
2024-03-24T07:20:43.403Z,9.23
2024-03-24T07:21:43.402Z,9.23
2024-03-24T07:22:43.461Z,9.41
2024-03-24T07:23:43.433Z,9.62
2024-03-24T07:24:43.460Z,9.74
2024-03-24T07:25:43.467Z,9.95
2024-03-24T07:26:43.501Z,9.73
2024-03-24T07:27:43.499Z,9.66
2024-03-24T07:28:43.544Z,9.65
2024-03-24T07:29:43.571Z,9.50
2024-03-24T07:30:43.572Z,9.64
2024-03-24T07:31:43.621Z,9.57
2024-03-24T07:32:43.635Z,9.68
2024-03-24T07:33:43.684Z,9.64
2024-03-24T07:34:43.716Z,9.68
2024-03-24T07:35:43.726Z,9.59
2024-03-24T07:36:43.787Z,9.71
2024-03-24T07:37:43.835Z,9.66
2024-03-24T07:38:43.936Z,9.51
2024-03-24T07:39:43.977Z,9.66
2024-03-24T07:40:44.060Z,9.73
2024-03-24T07:41:46.167Z,9.78
2024-03-24T07:42:44.783Z,9.92
2024-03-24T07:43:44.123Z,9.88
2024-03-24T07:44:44.089Z,9.95
2024-03-24T07:45:44.120Z,9.92
2024-03-24T07:46:44.119Z,9.95
2024-03-24T07:47:44.153Z,9.95
2024-03-24T07:48:47.413Z,9.98
2024-03-24T07:49:45.123Z,10.01
2024-03-24T07:50:44.127Z,10.08
2024-03-24T07:51:44.149Z,10.13
2024-03-24T07:52:44.114Z,10.04
2024-03-24T07:53:44.167Z,10.08
2024-03-24T07:54:44.139Z,10.12
2024-03-24T07:55:44.148Z,10.10
2024-03-24T07:56:44.166Z,10.09
2024-03-24T07:57:44.177Z,9.88
2024-03-24T07:58:44.252Z,9.92
2024-03-24T07:59:44.328Z,10.04
2024-03-24T08:00:44.386Z,10.10
2024-03-24T08:01:44.473Z,9.95
2024-03-24T08:02:44.570Z,9.85
2024-03-24T08:03:44.618Z,10.02
2024-03-24T08:04:44.691Z,9.95
2024-03-24T08:05:44.780Z,9.82
2024-03-24T08:06:44.862Z,9.65
2024-03-24T08:07:44.947Z,9.77
2024-03-24T08:08:45.075Z,9.71
2024-03-24T08:09:45.120Z,9.59
2024-03-24T08:10:45.230Z,9.62
2024-03-24T08:11:45.278Z,9.62
2024-03-24T08:12:45.318Z,9.62
2024-03-24T08:13:45.393Z,9.73
2024-03-24T08:14:45.393Z,9.77
2024-03-24T08:15:45.479Z,9.95
2024-03-24T08:16:45.546Z,10.04
2024-03-24T08:17:45.618Z,10.05
2024-03-24T08:18:45.673Z,9.91
2024-03-24T08:19:45.732Z,9.94
2024-03-24T08:20:45.819Z,9.94
2024-03-24T08:21:45.880Z,9.81
2024-03-24T08:22:45.931Z,9.84
2024-03-24T08:23:45.963Z,9.70
2024-03-24T08:24:45.992Z,9.73
2024-03-24T08:25:46.015Z,9.71
2024-03-24T08:26:46.047Z,9.77
2024-03-24T08:27:46.075Z,9.81
2024-03-24T08:28:46.108Z,9.95
2024-03-24T08:29:46.203Z,9.91
2024-03-24T08:30:46.252Z,9.99
2024-03-24T08:31:46.322Z,9.98
2024-03-24T08:32:46.368Z,10.12
2024-03-24T08:33:46.437Z,10.09
2024-03-24T08:34:46.448Z,10.20
2024-03-24T08:35:46.499Z,10.18
2024-03-24T08:36:46.544Z,10.18
2024-03-24T08:37:46.547Z,10.23
2024-03-24T08:38:46.646Z,10.15
2024-03-24T08:39:46.668Z,10.15
2024-03-24T08:40:46.668Z,10.16
2024-03-24T08:41:46.689Z,10.16
2024-03-24T08:42:46.730Z,10.18
2024-03-24T08:43:46.775Z,10.20
2024-03-24T08:44:46.839Z,10.09
2024-03-24T08:45:46.908Z,10.08
2024-03-24T08:46:46.954Z,10.05
2024-03-24T08:47:47.005Z,10.18
2024-03-24T08:48:47.366Z,10.22
2024-03-24T08:49:47.066Z,10.19
2024-03-24T08:50:47.071Z,10.13
2024-03-24T08:51:47.153Z,10.08
2024-03-24T08:52:47.248Z,9.99
2024-03-24T08:53:47.560Z,9.96
2024-03-24T08:54:47.332Z,9.88
2024-03-24T08:55:47.375Z,9.94
2024-03-24T08:56:47.402Z,10.02
2024-03-24T08:57:47.392Z,9.99
2024-03-24T08:58:47.418Z,10.02
2024-03-24T08:59:47.464Z,10.18
2024-03-24T09:00:47.505Z,10.25
2024-03-24T09:01:47.535Z,10.22
2024-03-24T09:02:47.529Z,10.31
2024-03-24T09:03:47.535Z,10.25
2024-03-24T09:04:47.569Z,10.42
2024-03-24T09:05:47.739Z,10.50
2024-03-24T09:06:47.762Z,10.35
2024-03-24T09:07:47.814Z,10.39
2024-03-24T09:08:47.864Z,10.52
2024-03-24T09:09:47.940Z,10.50
2024-03-24T09:10:48.003Z,10.40
2024-03-24T09:11:48.076Z,10.35
2024-03-24T09:12:48.117Z,10.35
2024-03-24T09:13:48.211Z,10.42
2024-03-24T09:14:48.249Z,10.32
2024-03-24T09:15:48.256Z,10.18
2024-03-24T09:16:48.292Z,10.06
2024-03-24T09:17:48.288Z,10.02
2024-03-24T09:18:48.294Z,10.06
2024-03-24T09:19:48.361Z,10.10
2024-03-24T09:20:48.352Z,9.99
2024-03-24T09:21:48.362Z,9.92
2024-03-24T09:22:48.402Z,9.86
2024-03-24T09:23:48.449Z,9.77
2024-03-24T09:24:48.544Z,9.78
2024-03-24T09:25:48.641Z,9.88
2024-03-24T09:26:48.726Z,9.86
2024-03-24T09:27:48.789Z,9.92
2024-03-24T09:28:48.868Z,9.92
2024-03-24T09:29:48.935Z,9.96
2024-03-24T09:30:49.021Z,10.13
2024-03-24T09:31:49.105Z,9.85
2024-03-24T09:32:49.170Z,9.82
2024-03-24T09:33:49.213Z,9.75
2024-03-24T09:34:49.649Z,9.65
2024-03-24T09:35:49.280Z,9.48
2024-03-24T09:36:50.227Z,9.37
2024-03-24T09:37:49.388Z,9.26
2024-03-24T09:38:49.455Z,9.14
2024-03-24T09:39:49.513Z,9.10
2024-03-24T09:40:49.571Z,9.16
2024-03-24T09:41:49.599Z,9.19
2024-03-24T09:42:49.710Z,9.27
2024-03-24T09:43:49.762Z,9.43
2024-03-24T09:44:49.761Z,9.40
2024-03-24T09:45:49.774Z,9.35
2024-03-24T09:46:49.836Z,9.51
2024-03-24T09:47:49.929Z,9.35
2024-03-24T09:48:49.997Z,9.55
2024-03-24T09:49:50.047Z,9.53
2024-03-24T09:50:50.077Z,9.45
2024-03-24T09:51:50.129Z,9.55
2024-03-24T09:52:50.179Z,9.57
2024-03-24T09:53:50.238Z,9.57
2024-03-24T09:54:50.286Z,9.57
2024-03-24T09:55:50.292Z,9.74
2024-03-24T09:56:50.402Z,9.71
2024-03-24T09:57:57.052Z,9.82
2024-03-24T09:58:51.451Z,9.77
2024-03-24T09:59:50.482Z,9.86
2024-03-24T10:00:50.465Z,9.96
2024-03-24T10:01:50.485Z,10.08
2024-03-24T10:02:50.486Z,10.04
2024-03-24T10:03:50.518Z,10.06
2024-03-24T10:04:50.516Z,9.85
2024-03-24T10:05:50.516Z,9.84
2024-03-24T10:06:50.533Z,9.68
2024-03-24T10:07:50.596Z,9.54
2024-03-24T10:08:50.680Z,9.50
2024-03-24T10:09:50.611Z,9.58
2024-03-24T10:10:50.656Z,9.62
2024-03-24T10:11:50.668Z,9.43
2024-03-24T10:12:50.672Z,9.33
2024-03-24T10:13:50.683Z,9.40
2024-03-24T10:14:50.732Z,9.44
2024-03-24T10:15:50.754Z,9.81
2024-03-24T10:16:50.762Z,9.94
2024-03-24T10:17:50.829Z,10.12
2024-03-24T10:18:50.891Z,10.01
2024-03-24T10:19:50.978Z,10.19
2024-03-24T10:20:50.961Z,10.22
2024-03-24T10:21:51.039Z,10.39
2024-03-24T10:22:51.094Z,10.08
2024-03-24T10:23:51.128Z,10.23
2024-03-24T10:24:51.182Z,10.29
2024-03-24T10:25:51.231Z,10.18
2024-03-24T10:26:51.287Z,10.06
2024-03-24T10:27:51.319Z,10.20
2024-03-24T10:28:51.355Z,10.20
2024-03-24T10:29:51.380Z,10.08
2024-03-24T10:30:51.379Z,10.18
2024-03-24T10:31:53.245Z,10.12
2024-03-24T10:32:51.444Z,10.19
2024-03-24T10:33:51.450Z,10.12
2024-03-24T10:34:51.462Z,10.18
2024-03-24T10:35:51.480Z,10.13
2024-03-24T10:36:51.507Z,10.26
2024-03-24T10:37:51.570Z,10.53
2024-03-24T10:38:51.594Z,10.55
2024-03-24T10:39:51.692Z,10.80
2024-03-24T10:40:54.929Z,10.93
2024-03-24T10:41:51.705Z,10.97
2024-03-24T10:42:51.674Z,10.89
2024-03-24T10:43:51.696Z,11.08
2024-03-24T10:44:51.688Z,11.20
2024-03-24T10:45:51.685Z,11.27
2024-03-24T10:46:51.659Z,11.34
2024-03-24T10:47:51.633Z,11.38
2024-03-24T10:48:51.639Z,11.32
2024-03-24T10:49:51.624Z,11.24
2024-03-24T10:50:51.601Z,11.22
2024-03-24T10:51:51.626Z,11.20
2024-03-24T10:52:53.667Z,11.27
2024-03-24T10:53:51.574Z,11.59
2024-03-24T10:54:51.584Z,11.75
2024-03-24T10:55:51.595Z,11.86
2024-03-24T10:56:51.553Z,11.99
2024-03-24T10:57:51.555Z,12.13
2024-03-24T10:58:51.511Z,12.09
2024-03-24T10:59:51.531Z,12.07
2024-03-24T11:00:51.472Z,11.79
2024-03-24T11:01:51.481Z,11.85
2024-03-24T11:02:51.462Z,12.17
2024-03-24T11:03:51.442Z,12.16
2024-03-24T11:04:51.458Z,12.32
2024-03-24T11:05:51.410Z,12.33
2024-03-24T11:06:51.398Z,12.44
2024-03-24T11:07:51.379Z,12.57
2024-03-24T11:08:51.320Z,12.53
2024-03-24T11:09:51.334Z,12.53
2024-03-24T11:10:51.309Z,12.57
2024-03-24T11:11:51.294Z,12.78
2024-03-24T11:12:51.310Z,12.68
2024-03-24T11:13:51.278Z,12.76
2024-03-24T11:14:51.244Z,12.66
2024-03-24T11:15:51.218Z,12.64
2024-03-24T11:16:51.160Z,12.77
2024-03-24T11:17:51.170Z,13.23
2024-03-24T11:18:52.669Z,13.55
2024-03-24T11:19:51.096Z,13.77
2024-03-24T11:20:51.058Z,13.84
2024-03-24T11:21:51.003Z,13.86
2024-03-24T11:22:50.958Z,13.68
2024-03-24T11:23:50.917Z,14.03
2024-03-24T11:24:50.877Z,14.23
2024-03-24T11:25:50.826Z,14.40
2024-03-24T11:26:50.784Z,14.55
2024-03-24T11:27:50.688Z,14.78
2024-03-24T11:28:50.651Z,14.95
2024-03-24T11:29:52.568Z,15.25
2024-03-24T11:30:50.529Z,15.22
2024-03-24T11:31:50.464Z,15.39
2024-03-24T11:32:50.396Z,15.16
2024-03-24T11:33:50.333Z,15.36
2024-03-24T11:34:50.349Z,15.36
2024-03-24T11:35:50.232Z,15.54
2024-03-24T11:36:50.168Z,15.54
2024-03-24T11:37:50.077Z,15.54
2024-03-24T11:38:50.051Z,15.69
2024-03-24T11:39:49.992Z,15.67
2024-03-24T11:40:53.038Z,15.57
2024-03-24T11:41:49.869Z,15.59
2024-03-24T11:42:49.783Z,15.49
2024-03-24T11:43:49.721Z,15.39
2024-03-24T11:44:49.713Z,15.19
2024-03-24T11:45:49.633Z,15.35
2024-03-24T11:46:49.575Z,15.59
2024-03-24T11:47:49.493Z,15.94
2024-03-24T11:48:49.446Z,16.00
2024-03-24T11:49:49.484Z,16.08
2024-03-24T11:50:49.277Z,16.15
2024-03-24T11:51:49.227Z,16.31
2024-03-24T11:52:52.483Z,16.50
2024-03-24T11:53:49.075Z,16.55
2024-03-24T11:54:48.973Z,16.18
2024-03-24T11:55:49.012Z,16.15
2024-03-24T11:56:48.838Z,16.11
2024-03-24T11:57:48.791Z,16.34
2024-03-24T11:58:48.715Z,16.25
2024-03-24T11:59:48.656Z,16.45
2024-03-24T12:00:48.619Z,16.59
2024-03-24T12:01:48.513Z,16.82
2024-03-24T12:02:48.421Z,16.64
2024-03-24T12:03:48.363Z,16.45
2024-03-24T12:04:48.258Z,16.40
2024-03-24T12:05:48.194Z,16.52
2024-03-24T12:06:48.127Z,16.55
2024-03-24T12:07:48.045Z,16.82
2024-03-24T12:08:47.986Z,16.99
2024-03-24T12:09:47.889Z,17.20
2024-03-24T12:10:47.832Z,17.07
2024-03-24T12:11:47.734Z,17.22
2024-03-24T12:12:47.661Z,17.27
2024-03-24T12:13:47.596Z,17.29
2024-03-24T12:14:47.506Z,17.40
2024-03-24T12:15:47.440Z,17.40
2024-03-24T12:16:47.343Z,17.76
2024-03-24T12:17:47.253Z,17.60
2024-03-24T12:18:47.152Z,17.63
2024-03-24T12:19:47.091Z,17.71
2024-03-24T12:20:46.984Z,17.80
2024-03-24T12:21:46.905Z,17.85
2024-03-24T12:22:46.785Z,17.85
2024-03-24T12:23:46.708Z,17.53
2024-03-24T12:24:46.631Z,17.77
2024-03-24T12:25:46.509Z,18.05
2024-03-24T12:26:46.412Z,18.16
2024-03-24T12:27:46.319Z,18.12
2024-03-24T12:28:46.222Z,18.39
2024-03-24T12:29:46.116Z,18.62
2024-03-24T12:30:46.004Z,18.74
2024-03-24T12:31:45.901Z,18.96
2024-03-24T12:32:45.774Z,19.03
2024-03-24T12:33:45.672Z,19.07
2024-03-24T12:34:45.544Z,18.94
2024-03-24T12:35:45.443Z,19.14
2024-03-24T12:36:45.319Z,19.10
2024-03-24T12:37:45.236Z,18.74
2024-03-24T12:38:45.091Z,18.76
2024-03-24T12:39:44.989Z,16.95
2024-03-24T12:40:44.925Z,16.27
2024-03-24T12:41:44.869Z,16.05
2024-03-24T12:42:44.823Z,16.07
2024-03-24T12:43:44.752Z,15.74
2024-03-24T12:44:44.726Z,15.98
2024-03-24T12:45:44.701Z,16.12
2024-03-24T12:46:44.632Z,16.36
2024-03-24T12:47:44.615Z,16.52
2024-03-24T12:48:44.565Z,16.66
2024-03-24T12:49:58.183Z,16.76
2024-03-24T12:50:46.583Z,16.97
2024-03-24T12:51:44.332Z,16.93
2024-03-24T12:52:44.237Z,17.07
2024-03-24T12:53:44.156Z,17.25
2024-03-24T12:54:44.108Z,17.50
2024-03-24T12:55:44.053Z,17.76
2024-03-24T12:56:43.968Z,17.87
2024-03-24T12:57:43.908Z,17.85
2024-03-24T12:58:43.883Z,17.76
2024-03-24T12:59:43.816Z,17.90
2024-03-24T13:00:43.771Z,18.08
2024-03-24T13:01:43.657Z,18.12
2024-03-24T13:02:43.545Z,18.11
2024-03-24T13:03:43.485Z,18.08
2024-03-24T13:04:43.421Z,17.81
2024-03-24T13:05:43.407Z,17.77
2024-03-24T13:06:43.376Z,17.77
2024-03-24T13:07:43.344Z,17.66
2024-03-24T13:08:43.260Z,17.53
2024-03-24T13:09:43.187Z,17.78
2024-03-24T13:10:43.133Z,17.87
2024-03-24T13:11:43.036Z,17.78